Time;durP1;ratioP1;P1;durP2;ratioP2;P2;SDS_P1;SDS_P2;PMS_P1;PMS_P2;Temp;Humidity;BMP_temperature;BMP_pressure;BME280_temperature;BME280_humidity;BME280_pressure;Samples;Min_cycle;Max_cycle;Signal;HPM_P1;HPM_P2
2021/07/03 00:00:18;;;;;;;9.07;3.40;;;538.00;2406.40;;;;;;5055021;28;20479;-73
2021/07/03 00:02:43;;;;;;;4.85;2.30;;;538.00;2406.40;;;;;;5057872;28;20041;-71
2021/07/03 00:05:10;;;;;;;6.53;2.20;;;537.90;2406.40;;;;;;5054868;28;20029;-74
2021/07/03 00:07:36;;;;;;;5.90;2.38;;;537.80;2406.40;;;;;;5054841;28;20021;-74
2021/07/03 00:10:03;;;;;;;5.10;2.15;;;537.70;2406.40;;;;;;5055273;28;20364;-75
2021/07/03 00:12:29;;;;;;;4.68;2.10;;;537.60;2406.40;;;;;;5054768;28;20108;-75
2021/07/03 00:14:55;;;;;;;4.57;2.30;;;537.60;2406.40;;;;;;5063722;28;20103;-73
2021/07/03 00:17:21;;;;;;;5.15;2.35;;;512.90;2380.80;;;;;;5059677;28;20029;-71
2021/07/03 00:19:46;;;;;;;4.03;2.17;;;512.90;2380.80;;;;;;5054731;28;20495;-70
2021/07/03 00:22:12;;;;;;;4.28;2.22;;;512.90;2380.80;;;;;;5054729;28;20025;-70
2021/07/03 00:24:38;;;;;;;5.95;2.40;;;512.90;2380.80;;;;;;5054614;28;20025;-76
2021/07/03 00:27:04;;;;;;;5.57;2.50;;;512.90;2380.80;;;;;;5054728;28;20025;-75
2021/07/03 00:29:30;;;;;;;4.90;2.22;;;512.90;2380.80;;;;;;5054739;28;20028;-76
2021/07/03 00:31:56;;;;;;;5.70;2.47;;;537.60;2406.40;;;;;;5054471;28;20021;-75
2021/07/03 00:34:22;;;;;;;5.18;2.25;;;512.90;2380.80;;;;;;5054622;28;20029;-76
2021/07/03 00:36:47;;;;;;;3.67;2.30;;;512.90;2380.80;;;;;;5054469;28;20037;-75
2021/07/03 00:39:13;;;;;;;4.45;2.00;;;537.60;2406.40;;;;;;5054391;28;20021;-71
2021/07/03 00:41:39;;;;;;;5.68;2.40;;;512.90;2380.80;;;;;;5054290;28;20048;-70
2021/07/03 00:44:04;;;;;;;6.25;2.30;;;512.90;2380.80;;;;;;5054057;28;20108;-70
2021/07/03 00:46:30;;;;;;;5.47;2.35;;;512.90;2380.80;;;;;;5054373;28;20021;-73
2021/07/03 00:48:56;;;;;;;4.47;2.22;;;512.80;2380.80;;;;;;5054211;28;20079;-76
2021/07/03 00:51:22;;;;;;;7.38;2.40;;;512.80;2380.80;;;;;;5054101;28;20045;-74
2021/07/03 00:53:47;;;;;;;7.18;2.53;;;512.70;2380.80;;;;;;5054100;28;20016;-73
2021/07/03 00:56:13;;;;;;;4.85;2.70;;;512.70;2380.80;;;;;;5059159;28;20025;-74
2021/07/03 00:58:39;;;;;;;5.63;2.85;;;512.70;2380.80;;;;;;5053961;28;20083;-69
2021/07/03 01:01:04;;;;;;;6.40;4.22;;;512.70;2380.80;;;;;;5054015;28;20039;-70
2021/07/03 01:03:30;;;;;;;10.95;5.43;;;512.70;2380.80;;;;;;5056544;28;20028;-71
2021/07/03 01:05:56;;;;;;;6.60;5.35;;;512.70;2380.80;;;;;;5053899;28;20029;-70
2021/07/03 01:08:21;;;;;;;5.97;4.50;;;512.60;2380.80;;;;;;5053988;28;20029;-71
2021/07/03 01:10:47;;;;;;;6.05;4.28;;;512.60;2380.80;;;;;;5053976;28;20028;-74
2021/07/03 01:13:13;;;;;;;7.15;3.88;;;512.60;2380.80;;;;;;5053801;28;20028;-73
2021/07/03 01:15:39;;;;;;;5.78;3.45;;;512.50;2380.80;;;;;;5067204;28;20063;-71
2021/07/03 01:18:04;;;;;;;5.38;3.63;;;512.40;2380.80;;;;;;5052512;28;20061;-76
2021/07/03 01:20:30;;;;;;;4.38;3.00;;;512.40;2380.80;;;;;;5063250;28;20036;-70
2021/07/03 01:22:56;;;;;;;5.43;2.80;;;512.40;2380.80;;;;;;5053687;28;20082;-78
2021/07/03 01:25:24;;;;;;;4.57;2.83;;;512.30;2380.80;;;;;;5053411;28;20029;-73
2021/07/03 01:28:02;;;;;;;4.65;3.05;;;512.20;2380.80;;;;;;5053565;28;20029;-74
2021/07/03 01:30:28;;;;;;;5.03;3.00;;;512.20;2380.80;;;;;;5053694;28;20029;-76
2021/07/03 01:32:55;;;;;;;4.88;2.78;;;512.10;2380.80;;;;;;5053720;28;20028;-77
2021/07/03 01:35:25;;;;;;;4.57;2.95;;;512.20;2380.80;;;;;;5053311;28;20032;-75
2021/07/03 01:37:51;;;;;;;4.55;3.03;;;512.10;2380.80;;;;;;5053518;28;20559;-75
2021/07/03 01:40:17;;;;;;;5.57;3.72;;;512.00;2380.80;;;;;;5053425;28;20178;-70
2021/07/03 01:42:42;;;;;;;6.10;4.45;;;512.00;2380.80;;;;;;5053041;28;20479;-70
2021/07/03 01:45:09;;;;;;;6.70;4.55;;;512.00;2380.80;;;;;;5053124;28;20040;-73
2021/07/03 01:47:41;;;;;;;7.40;4.43;;;512.00;2380.80;;;;;;5051896;28;20035;-78
2021/07/03 01:50:08;;;;;;;7.57;4.10;;;512.00;2380.80;;;;;;5053090;28;20037;-76
2021/07/03 01:52:37;;;;;;;6.35;3.97;;;512.00;2380.80;;;;;;5052925;28;20037;-70
2021/07/03 01:55:05;;;;;;;7.45;3.83;;;512.10;2380.80;;;;;;5057172;28;20483;-70
2021/07/03 01:57:30;;;;;;;7.90;4.10;;;512.10;2380.80;;;;;;5059473;28;20032;-71
2021/07/03 01:59:57;;;;;;;6.05;4.10;;;512.20;2380.80;;;;;;5052971;28;20438;-80
2021/07/03 02:02:23;;;;;;;5.45;4.10;;;512.20;2380.80;;;;;;5055762;28;20024;-78
2021/07/03 02:04:49;;;;;;;6.03;4.07;;;512.30;2380.80;;;;;;5052944;28;20075;-78
2021/07/03 02:07:15;;;;;;;5.80;3.92;;;512.30;2380.80;;;;;;5053098;28;20027;-76
2021/07/03 02:09:40;;;;;;;6.40;3.78;;;512.20;2380.80;;;;;;5052442;28;20100;-70
2021/07/03 02:12:06;;;;;;;5.15;3.35;;;512.30;2380.80;;;;;;5052864;28;20025;-75
2021/07/03 02:14:32;;;;;;;4.88;3.55;;;512.30;2380.80;;;;;;5058633;28;20676;-77
2021/07/03 02:16:58;;;;;;;5.93;3.40;;;512.30;2380.80;;;;;;5053519;28;20036;-80
2021/07/03 02:19:24;;;;;;;5.13;3.60;;;512.30;2380.80;;;;;;5053014;28;20479;-80
2021/07/03 02:21:50;;;;;;;4.60;3.70;;;512.40;2380.80;;;;;;5052734;28;20694;-78
2021/07/03 02:24:15;;;;;;;6.30;3.80;;;512.40;2380.80;;;;;;5052869;28;20025;-78
2021/07/03 02:26:41;;;;;;;6.85;3.40;;;512.40;2380.80;;;;;;5052553;28;20102;-77
2021/07/03 02:29:07;;;;;;;5.70;3.58;;;512.40;2380.80;;;;;;5052710;28;20021;-78
2021/07/03 02:31:33;;;;;;;5.28;3.78;;;512.40;2380.80;;;;;;5052605;28;20051;-78
2021/07/03 02:33:59;;;;;;;6.03;3.60;;;512.40;2380.80;;;;;;5052785;28;20108;-78
2021/07/03 02:36:24;;;;;;;5.57;3.20;;;512.30;2380.80;;;;;;5052623;28;20032;-79
2021/07/03 02:38:50;;;;;;;4.00;2.88;;;512.30;2380.80;;;;;;5052271;28;20017;-78
2021/07/03 02:41:16;;;;;;;5.43;2.80;;;512.20;2380.80;;;;;;5054040;28;20033;-79
2021/07/03 02:43:42;;;;;;;4.28;2.60;;;512.20;2380.80;;;;;;5052613;28;20213;-73
2021/07/03 02:46:08;;;;;;;3.88;2.70;;;512.20;2380.80;;;;;;5051339;28;20108;-71
2021/07/03 02:48:34;;;;;;;6.40;3.20;;;512.10;2380.80;;;;;;5052491;28;20025;-74
2021/07/03 02:50:59;;;;;;;4.70;2.75;;;512.10;2380.80;;;;;;5052184;28;20063;-71
2021/07/03 02:53:25;;;;;;;5.35;2.70;;;512.10;2380.80;;;;;;5052512;28;20025;-81
2021/07/03 02:55:51;;;;;;;5.43;2.60;;;512.10;2380.80;;;;;;5061133;28;20039;-77
2021/07/03 02:58:16;;;;;;;6.18;2.60;;;512.10;2380.80;;;;;;5052880;28;20078;-71
2021/07/03 03:00:42;;;;;;;5.45;2.75;;;512.10;2380.80;;;;;;5064219;28;20031;-71
2021/07/03 03:03:08;;;;;;;5.45;2.72;;;512.20;2380.80;;;;;;5058862;28;20025;-71
2021/07/03 03:05:33;;;;;;;4.30;2.58;;;512.30;2380.80;;;;;;5062027;28;20541;-73
2021/07/03 03:07:59;;;;;;;5.07;2.63;;;512.20;2380.80;;;;;;5063010;28;20096;-69
2021/07/03 03:10:25;;;;;;;3.78;2.70;;;512.20;2380.80;;;;;;5065228;28;20088;-69
2021/07/03 03:12:50;;;;;;;5.90;2.60;;;512.20;2380.80;;;;;;5066383;28;20028;-80
2021/07/03 03:15:18;;;;;;;5.60;2.40;;;512.20;2380.80;;;;;;5062484;28;20036;-78
2021/07/03 03:17:44;;;;;;;4.20;2.30;;;512.30;2380.80;;;;;;5061210;28;20048;-79
2021/07/03 03:20:12;;;;;;;4.70;2.60;;;512.30;2380.80;;;;;;5059992;28;20025;-73
2021/07/03 03:22:39;;;;;;;4.20;2.30;;;512.30;2380.80;;;;;;5062485;28;20116;-68
2021/07/03 03:25:06;;;;;;;3.38;2.30;;;512.40;2380.80;;;;;;5060611;28;20290;-82
2021/07/03 03:27:32;;;;;;;4.13;2.53;;;512.40;2380.80;;;;;;5056083;28;20013;-79
2021/07/03 03:29:58;;;;;;;5.10;2.65;;;512.40;2380.80;;;;;;5056420;28;20107;-80
2021/07/03 03:32:24;;;;;;;4.15;2.38;;;512.40;2380.80;;;;;;5055794;28;20017;-71
2021/07/03 03:34:50;;;;;;;4.60;2.65;;;512.30;2380.80;;;;;;5056004;28;20029;-72
2021/07/03 03:37:16;;;;;;;6.00;3.00;;;512.40;2380.80;;;;;;5055550;28;20196;-70
2021/07/03 03:39:41;;;;;;;4.40;2.70;;;512.40;2380.80;;;;;;5055816;28;20104;-78
2021/07/03 03:42:07;;;;;;;5.40;3.00;;;512.40;2380.80;;;;;;5055626;28;20416;-74
2021/07/03 03:44:33;;;;;;;5.93;2.90;;;512.40;2380.80;;;;;;5055773;28;20038;-78
2021/07/03 03:46:59;;;;;;;5.10;2.80;;;512.40;2380.80;;;;;;5055633;28;20434;-70
2021/07/03 03:49:25;;;;;;;4.00;2.58;;;512.40;2380.80;;;;;;5055560;28;20074;-70
2021/07/03 03:51:51;;;;;;;5.20;2.70;;;512.40;2380.80;;;;;;5055212;28;20531;-69
2021/07/03 03:54:18;;;;;;;7.35;2.80;;;512.50;2380.80;;;;;;5055239;28;20032;-79
2021/07/03 03:56:43;;;;;;;4.53;2.72;;;512.50;2380.80;;;;;;5064316;28;20433;-79
2021/07/03 03:59:12;;;;;;;4.15;2.60;;;512.50;2380.80;;;;;;5055124;28;20096;-71
2021/07/03 04:01:38;;;;;;;4.97;2.78;;;512.60;2380.80;;;;;;5056051;28;20029;-71
2021/07/03 04:04:05;;;;;;;5.90;2.90;;;512.50;2380.80;;;;;;5057725;28;20036;-73
2021/07/03 04:06:31;;;;;;;6.88;3.92;;;512.50;2380.80;;;;;;5055167;28;20036;-71
2021/07/03 04:08:57;;;;;;;8.13;4.00;;;512.60;2380.80;;;;;;5055247;28;20030;-76
2021/07/03 04:11:22;;;;;;;5.88;3.30;;;512.60;2380.80;;;;;;5055099;28;20087;-71
2021/07/03 04:13:49;;;;;;;4.78;2.80;;;512.60;2380.80;;;;;;5055407;28;20021;-78
2021/07/03 04:16:14;;;;;;;4.07;2.70;;;512.60;2380.80;;;;;;5058278;28;20033;-74
2021/07/03 04:18:40;;;;;;;6.30;3.10;;;512.60;2380.80;;;;;;5054381;28;20013;-81
2021/07/03 04:21:06;;;;;;;9.07;4.65;;;512.50;2380.80;;;;;;5054867;28;20529;-80
2021/07/03 04:23:31;;;;;;;11.57;5.60;;;512.50;2380.80;;;;;;5054998;28;20092;-81
2021/07/03 04:25:57;;;;;;;5.10;3.10;;;512.40;2380.80;;;;;;5054667;28;20032;-78
2021/07/03 04:28:23;;;;;;;4.82;2.75;;;512.40;2380.80;;;;;;5054655;28;20029;-69
2021/07/03 04:30:48;;;;;;;5.60;2.80;;;512.40;2380.80;;;;;;5055768;28;20483;-71
2021/07/03 04:33:14;;;;;;;5.10;3.08;;;512.40;2380.80;;;;;;5055923;28;20094;-72
2021/07/03 04:35:40;;;;;;;6.05;2.83;;;512.40;2380.80;;;;;;5056647;28;20024;-78
2021/07/03 04:38:05;;;;;;;6.25;2.60;;;512.40;2380.80;;;;;;5056268;28;20033;-71
2021/07/03 04:40:31;;;;;;;4.55;3.10;;;512.40;2380.80;;;;;;5056340;28;20386;-71
2021/07/03 04:42:57;;;;;;;6.25;3.15;;;512.40;2380.80;;;;;;5055766;28;20075;-69
2021/07/03 04:45:23;;;;;;;4.70;3.35;;;512.50;2380.80;;;;;;5056177;28;20033;-69
2021/07/03 04:47:49;;;;;;;6.07;3.10;;;512.60;2380.80;;;;;;5070141;28;20041;-70
2021/07/03 04:50:15;;;;;;;6.07;3.03;;;512.50;2380.80;;;;;;5072654;28;20070;-71
2021/07/03 04:52:40;;;;;;;4.93;3.05;;;512.70;2380.80;;;;;;5058599;28;20155;-73
2021/07/03 04:55:07;;;;;;;3.97;2.85;;;512.60;2380.80;;;;;;5072435;28;20021;-81
2021/07/03 04:57:33;;;;;;;4.47;2.90;;;512.50;2380.80;;;;;;5070726;28;20028;-78
2021/07/03 04:59:59;;;;;;;4.68;2.80;;;512.50;2380.80;;;;;;5072446;28;20063;-70
2021/07/03 05:02:25;;;;;;;4.53;2.70;;;512.50;2380.80;;;;;;5065129;28;20410;-69
2021/07/03 05:04:51;;;;;;;5.70;2.95;;;512.50;2380.80;;;;;;5071418;28;20052;-70
2021/07/03 05:07:16;;;;;;;4.68;2.70;;;512.60;2380.80;;;;;;5072428;28;20479;-78
2021/07/03 05:09:42;;;;;;;4.40;2.97;;;512.60;2380.80;;;;;;5073226;28;20050;-80
2021/07/03 05:12:08;;;;;;;4.40;2.88;;;512.50;2380.80;;;;;;5072764;28;20020;-78
2021/07/03 05:14:34;;;;;;;6.80;2.97;;;512.60;2380.80;;;;;;5070455;28;20035;-79
2021/07/03 05:17:00;;;;;;;4.40;2.97;;;512.60;2380.80;;;;;;5073074;28;20120;-79
2021/07/03 05:19:25;;;;;;;4.75;3.08;;;512.50;2380.80;;;;;;5072421;28;20020;-79
2021/07/03 05:21:51;;;;;;;6.03;3.08;;;512.60;2380.80;;;;;;5070992;28;20021;-78
2021/07/03 05:24:17;;;;;;;5.50;2.95;;;512.70;2380.80;;;;;;5072320;28;20069;-81
2021/07/03 05:26:43;;;;;;;5.28;3.00;;;512.60;2380.80;;;;;;5057254;28;20543;-77
2021/07/03 05:29:08;;;;;;;5.20;3.00;;;512.70;2380.80;;;;;;5055660;28;20021;-72
2021/07/03 05:31:34;;;;;;;6.18;3.03;;;512.80;2380.80;;;;;;5052559;28;20055;-71
2021/07/03 05:34:00;;;;;;;4.60;3.28;;;512.80;2380.80;;;;;;5053467;28;20075;-77
2021/07/03 05:36:26;;;;;;;5.47;3.30;;;512.80;2380.80;;;;;;5053838;28;20025;-79
2021/07/03 05:38:52;;;;;;;8.50;3.60;;;512.90;2380.80;;;;;;5053600;28;20025;-79
2021/07/03 05:41:19;;;;;;;5.88;3.67;;;512.90;2380.80;;;;;;5053525;28;20021;-69
2021/07/03 05:43:46;;;;;;;5.85;3.65;;;512.90;2380.80;;;;;;5053027;28;20438;-70
2021/07/03 05:46:12;;;;;;;6.72;4.30;;;537.60;2406.40;;;;;;5053322;28;20036;-70
2021/07/03 05:48:42;;;;;;;7.57;4.50;;;537.70;2406.40;;;;;;5051920;28;20451;-71
2021/07/03 05:51:09;;;;;;;7.30;4.40;;;537.90;2406.40;;;;;;5053051;28;20041;-73
2021/07/03 05:53:34;;;;;;;5.93;4.00;;;538.00;2406.40;;;;;;5053526;28;20029;-71
2021/07/03 05:56:00;;;;;;;5.05;3.60;;;538.00;2406.40;;;;;;5060475;28;20551;-77
2021/07/03 05:58:26;;;;;;;5.28;3.00;;;538.10;2406.40;;;;;;5053281;28;20498;-71
2021/07/03 06:00:52;;;;;;;5.20;3.00;;;538.10;2406.40;;;;;;5053027;28;20056;-78
2021/07/03 06:03:18;;;;;;;4.63;3.10;;;538.10;2406.40;;;;;;5058638;28;20017;-77
2021/07/03 06:05:43;;;;;;;4.95;3.00;;;538.10;2406.40;;;;;;5053355;28;20021;-80
2021/07/03 06:08:09;;;;;;;4.55;3.00;;;538.00;2406.40;;;;;;5053395;28;20013;-77
2021/07/03 06:10:35;;;;;;;5.47;2.92;;;538.00;2406.40;;;;;;5052889;28;20514;-70
2021/07/03 06:13:00;;;;;;;5.85;3.00;;;538.00;2406.40;;;;;;5052706;28;20138;-70
2021/07/03 06:15:27;;;;;;;3.92;2.67;;;537.90;2406.40;;;;;;5056366;28;20033;-75
2021/07/03 06:17:53;;;;;;;3.85;2.70;;;537.80;2406.40;;;;;;5053021;28;20036;-79
2021/07/03 06:20:19;;;;;;;4.90;3.13;;;537.80;2406.40;;;;;;5051745;28;20102;-71
2021/07/03 06:22:45;;;;;;;4.72;3.10;;;537.90;2406.40;;;;;;5052664;28;20036;-71
2021/07/03 06:25:12;;;;;;;6.68;3.00;;;537.90;2406.40;;;;;;5052231;28;20017;-70
2021/07/03 06:27:38;;;;;;;3.92;2.80;;;538.00;2406.40;;;;;;5052561;28;20025;-69
2021/07/03 06:30:06;;;;;;;6.43;3.10;;;538.10;2406.40;;;;;;5052311;28;20491;-71
2021/07/03 06:32:32;;;;;;;5.68;3.10;;;538.20;2406.40;;;;;;5052735;28;20024;-70
2021/07/03 06:34:58;;;;;;;5.22;3.17;;;538.30;2406.40;;;;;;5052510;28;20041;-69
2021/07/03 06:37:24;;;;;;;5.13;3.13;;;538.30;2406.40;;;;;;5052390;28;20040;-71
2021/07/03 06:39:50;;;;;;;4.07;2.97;;;538.50;2406.40;;;;;;5052175;28;20426;-71
2021/07/03 06:42:17;;;;;;;5.13;3.15;;;538.40;2406.40;;;;;;5053641;28;20035;-70
2021/07/03 06:44:45;;;;;;;5.60;2.72;;;538.40;2406.40;;;;;;5071534;28;20047;-70
2021/07/03 06:47:11;;;;;;;4.32;2.75;;;538.40;2406.40;;;;;;5067869;28;20071;-70
2021/07/03 06:49:37;;;;;;;6.82;3.10;;;538.50;2406.40;;;;;;5067834;28;20024;-70
2021/07/03 06:52:03;;;;;;;4.18;2.85;;;538.50;2406.40;;;;;;5070869;28;20483;-70
2021/07/03 06:54:29;;;;;;;5.63;3.30;;;563.20;2432.00;;;;;;5066416;28;20025;-70
2021/07/03 06:56:57;;;;;;;5.13;3.50;;;563.60;2432.00;;;;;;5069313;28;20138;-71
2021/07/03 06:59:27;;;;;;;5.13;3.70;;;563.70;2432.00;;;;;;5065826;28;20037;-70
2021/07/03 07:01:53;;;;;;;5.85;3.80;;;563.80;2432.00;;;;;;5066427;28;20031;-70
2021/07/03 07:04:22;;;;;;;6.10;4.10;;;588.80;2432.00;;;;;;5063049;28;20482;-70
2021/07/03 07:06:48;;;;;;;5.75;4.20;;;589.10;2432.00;;;;;;5066413;28;20031;-70
2021/07/03 07:09:15;;;;;;;6.00;4.30;;;589.30;2432.00;;;;;;5070093;28;20534;-70
2021/07/03 07:11:40;;;;;;;5.22;4.30;;;589.20;2432.00;;;;;;5070187;28;20438;-71
2021/07/03 07:14:06;;;;;;;5.55;4.35;;;589.20;2432.00;;;;;;5071486;28;20036;-71
2021/07/03 07:16:34;;;;;;;5.32;4.45;;;589.20;2432.00;;;;;;5070973;28;20030;-71
2021/07/03 07:19:00;;;;;;;5.95;4.13;;;589.70;2432.00;;;;;;5071897;28;20383;-71
2021/07/03 07:21:26;;;;;;;6.10;4.30;;;614.60;2432.00;;;;;;5067280;28;20025;-70
2021/07/03 07:23:52;;;;;;;6.13;4.38;;;614.70;2432.00;;;;;;5071089;28;20095;-71
2021/07/03 07:26:17;;;;;;;6.03;4.50;;;614.70;2432.00;;;;;;5069925;28;20032;-70
2021/07/03 07:28:43;;;;;;;7.38;5.20;;;640.60;2380.80;;;;;;5056281;28;20131;-70
2021/07/03 07:31:09;;;;;;;6.10;4.70;;;615.00;2432.00;;;;;;5053664;28;20017;-70
2021/07/03 07:33:35;;;;;;;6.10;5.45;;;614.80;2432.00;;;;;;5066380;28;20017;-70
2021/07/03 07:36:00;;;;;;;7.15;5.30;;;614.50;2432.00;;;;;;5072918;28;20035;-70
2021/07/03 07:38:27;;;;;;;7.43;6.07;;;589.60;2432.00;;;;;;5073690;28;20035;-72
2021/07/03 07:40:53;;;;;;;9.45;5.45;;;691.40;2278.40;;;;;;5069015;28;20040;-73
2021/07/03 07:43:19;;;;;;;7.93;5.25;;;717.50;2176.00;;;;;;5069662;28;20425;-70
2021/07/03 07:45:45;;;;;;;6.80;4.97;;;692.10;2150.40;;;;;;5060615;28;20146;-69
2021/07/03 07:48:10;;;;;;;5.95;4.85;;;691.30;2227.20;;;;;;5052180;28;20021;-71
2021/07/03 07:50:36;;;;;;;5.50;4.88;;;666.10;2252.80;;;;;;5050901;28;20442;-70
2021/07/03 07:53:02;;;;;;;5.50;4.70;;;666.50;2252.80;;;;;;5060347;28;20058;-75
2021/07/03 07:55:28;;;;;;;4.97;4.40;;;666.20;2252.80;;;;;;5072642;28;20024;-74
2021/07/03 07:57:54;;;;;;;8.18;4.47;;;691.60;2201.60;;;;;;5070388;28;20020;-70
2021/07/03 08:00:22;;;;;;;4.70;3.97;;;717.60;2124.80;;;;;;5073418;28;20024;-76
2021/07/03 08:02:49;;;;;;;4.75;3.70;;;742.90;2073.60;;;;;;5072271;28;20025;-70
2021/07/03 08:05:15;;;;;;;5.45;3.70;;;742.60;2048.00;;;;;;5073705;28;20470;-72
2021/07/03 08:07:41;;;;;;;4.30;3.60;;;870.40;1817.60;;;;;;5071032;28;20025;-70
2021/07/03 08:10:07;;;;;;;5.70;3.28;;;794.00;1868.80;;;;;;5064260;28;20471;-70
2021/07/03 08:12:34;;;;;;;4.65;3.50;;;742.80;1945.60;;;;;;5061998;28;20032;-79
2021/07/03 08:15:00;;;;;;;4.15;3.45;;;768.10;1894.40;;;;;;5063858;28;20509;-70
2021/07/03 08:17:26;;;;;;;4.53;3.47;;;717.70;1945.60;;;;;;5072317;28;20020;-74
2021/07/03 08:19:52;;;;;;;4.00;3.40;;;716.80;2022.40;;;;;;5057773;28;20032;-78
2021/07/03 08:22:17;;;;;;;5.45;4.22;;;691.80;2048.00;;;;;;5055693;28;20032;-77
2021/07/03 08:24:44;;;;;;;6.35;3.70;;;717.10;2048.00;;;;;;5055665;28;20117;-69
2021/07/03 08:27:09;;;;;;;4.28;3.50;;;768.90;1868.80;;;;;;5054929;28;20096;-69
2021/07/03 08:29:35;;;;;;;4.45;3.70;;;717.70;1945.60;;;;;;5054652;28;20025;-70
2021/07/03 08:32:01;;;;;;;4.68;3.70;;;691.90;1996.80;;;;;;5054838;28;20021;-69
2021/07/03 08:34:26;;;;;;;5.28;2.85;;;691.30;2048.00;;;;;;5054830;28;20383;-70
2021/07/03 08:36:52;;;;;;;4.22;2.70;;;666.00;2099.20;;;;;;5055072;28;20119;-68
2021/07/03 08:39:18;;;;;;;4.15;2.50;;;640.70;2099.20;;;;;;5054705;28;20051;-68
2021/07/03 08:41:44;;;;;;;3.63;2.50;;;640.20;2150.40;;;;;;5074692;28;20028;-74
2021/07/03 08:44:16;;;;;;;5.45;2.25;;;615.30;2176.00;;;;;;5074383;28;20024;-73
2021/07/03 08:46:45;;;;;;;5.95;3.00;;;615.10;2201.60;;;;;;5072581;28;20402;-70
2021/07/03 08:49:16;;;;;;;5.32;2.70;;;615.00;2201.60;;;;;;5059051;28;20021;-68
2021/07/03 08:51:50;;;;;;;3.53;2.47;;;614.90;2227.20;;;;;;5072442;28;20049;-77
2021/07/03 08:54:16;;;;;;;4.32;2.30;;;614.90;2227.20;;;;;;5076962;28;20070;-70
2021/07/03 08:56:43;;;;;;;4.13;2.10;;;615.10;2227.20;;;;;;5072234;28;20021;-68
2021/07/03 08:59:20;;;;;;;3.65;2.20;;;615.20;2227.20;;;;;;5065130;28;20029;-69
2021/07/03 09:01:50;;;;;;;3.22;2.20;;;640.20;2176.00;;;;;;5056085;28;20037;-68
2021/07/03 09:04:16;;;;;;;3.30;2.00;;;640.40;2150.40;;;;;;5068907;28;20035;-70
2021/07/03 09:06:42;;;;;;;2.85;1.90;;;640.90;2124.80;;;;;;5074417;28;20020;-70
2021/07/03 09:09:08;;;;;;;4.07;2.20;;;666.20;2150.40;;;;;;5075614;28;20027;-74
2021/07/03 09:11:34;;;;;;;3.60;2.45;;;691.60;2099.20;;;;;;5075743;28;20021;-73
2021/07/03 09:14:05;;;;;;;4.68;2.17;;;691.80;2073.60;;;;;;5073105;28;20471;-71
2021/07/03 09:16:33;;;;;;;3.97;2.22;;;716.90;2048.00;;;;;;5071112;28;20029;-66
2021/07/03 09:19:00;;;;;;;3.00;2.00;;;717.10;2048.00;;;;;;5077333;28;20386;-69
2021/07/03 09:21:27;;;;;;;3.20;2.00;;;692.10;1996.80;;;;;;5069788;28;20052;-71
2021/07/03 09:23:53;;;;;;;5.53;3.03;;;691.60;2048.00;;;;;;5073098;28;20099;-69
2021/07/03 09:26:19;;;;;;;3.38;2.20;;;691.30;2048.00;;;;;;5059157;28;20045;-69
2021/07/03 09:28:53;;;;;;;3.40;2.30;;;666.30;2073.60;;;;;;5068732;28;20060;-70
2021/07/03 09:31:20;;;;;;;3.30;2.25;;;666.50;2073.60;;;;;;5057117;28;20102;-68
2021/07/03 09:33:54;;;;;;;4.18;2.70;;;691.40;2073.60;;;;;;5054578;28;20029;-70
2021/07/03 09:36:28;;;;;;;4.70;2.70;;;691.60;2048.00;;;;;;5054730;28;20029;-69
2021/07/03 09:38:55;;;;;;;3.55;2.20;;;691.40;2073.60;;;;;;5055757;28;20025;-70
2021/07/03 09:41:28;;;;;;;3.33;2.22;;;666.40;2099.20;;;;;;5062023;28;20540;-75
2021/07/03 09:43:56;;;;;;;3.80;2.80;;;666.30;2099.20;;;;;;5061359;28;20067;-74
2021/07/03 09:46:32;;;;;;;4.57;2.80;;;666.40;2099.20;;;;;;5062798;28;20031;-69
2021/07/03 09:49:06;;;;;;;3.83;2.80;;;691.40;2073.60;;;;;;5071905;28;20376;-68
2021/07/03 09:51:36;;;;;;;6.30;2.70;;;691.80;2048.00;;;;;;5071039;28;20083;-71
2021/07/03 09:54:04;;;;;;;4.85;3.05;;;692.10;2022.40;;;;;;5070040;28;20021;-69
2021/07/03 09:56:30;;;;;;;4.50;3.10;;;716.80;2022.40;;;;;;5071286;28;20078;-74
2021/07/03 09:58:56;;;;;;;4.57;3.40;;;692.10;1996.80;;;;;;5067185;28;20024;-69
2021/07/03 10:01:22;;;;;;;3.70;2.90;;;717.10;2022.40;;;;;;5066516;28;20035;-69
2021/07/03 10:03:47;;;;;;;4.00;3.20;;;717.50;1971.20;;;;;;5063612;28;20750;-70
2021/07/03 10:06:20;;;;;;;4.60;3.20;;;742.40;1996.80;;;;;;5070079;28;20085;-71
2021/07/03 10:08:52;;;;;;;3.97;3.10;;;742.50;1971.20;;;;;;5066252;28;20033;-71
2021/07/03 10:11:23;;;;;;;4.38;3.33;;;742.40;1996.80;;;;;;5064727;28;20380;-69
2021/07/03 10:14:02;;;;;;;3.80;3.20;;;742.50;1971.20;;;;;;5063892;28;20034;-70
2021/07/03 10:16:29;;;;;;;4.20;3.00;;;742.80;1971.20;;;;;;5071668;28;20013;-70
2021/07/03 10:19:16;;;;;;;5.10;2.80;;;743.10;1920.00;;;;;;5071541;28;20021;-70
2021/07/03 10:21:45;;;;;;;5.28;3.10;;;743.10;1920.00;;;;;;5064949;28;20025;-76
2021/07/03 10:24:22;;;;;;;4.43;3.22;;;743.00;1920.00;;;;;;5063722;28;20374;-70
2021/07/03 10:26:51;;;;;;;6.95;3.40;;;742.80;1894.40;;;;;;5068199;28;20099;-70
2021/07/03 10:29:19;;;;;;;4.05;3.30;;;742.80;1894.40;;;;;;5070264;28;20475;-72
2021/07/03 10:31:46;;;;;;;3.90;3.10;;;742.80;1894.40;;;;;;5071216;28;20031;-69
2021/07/03 10:34:12;;;;;;;4.25;3.10;;;742.80;1920.00;;;;;;5072431;28;20070;-71
2021/07/03 10:36:40;;;;;;;4.55;3.10;;;742.60;1920.00;;;;;;5069537;28;20021;-70
2021/07/03 10:39:07;;;;;;;3.70;3.30;;;717.40;1945.60;;;;;;5067300;28;20111;-68
2021/07/03 10:41:35;;;;;;;5.30;3.30;;;716.90;1945.60;;;;;;5070453;28;20447;-68
2021/07/03 10:44:11;;;;;;;3.75;3.30;;;716.80;1920.00;;;;;;5069820;28;20033;-69
2021/07/03 10:46:43;;;;;;;4.22;3.30;;;716.80;1920.00;;;;;;5069513;28;20469;-67
2021/07/03 10:49:11;;;;;;;4.32;3.22;;;716.80;1945.60;;;;;;5068396;28;20610;-70
2021/07/03 10:51:45;;;;;;;4.72;3.15;;;692.10;1920.00;;;;;;5061465;28;20040;-67
2021/07/03 10:54:24;;;;;;;3.55;2.88;;;692.00;1945.60;;;;;;5058110;28;20027;-76
2021/07/03 10:57:05;;;;;;;5.40;2.60;;;692.00;1945.60;;;;;;5062837;28;20386;-70
2021/07/03 10:59:39;;;;;;;4.13;2.70;;;716.90;1996.80;;;;;;5055830;28;20040;-69
2021/07/03 11:02:08;;;;;;;3.75;2.80;;;717.40;1971.20;;;;;;5068151;28;20023;-72
2021/07/03 11:04:54;;;;;;;5.22;2.70;;;717.70;1945.60;;;;;;5052505;28;20053;-71
2021/07/03 11:07:32;;;;;;;4.05;2.80;;;717.70;1894.40;;;;;;5070024;28;20040;-69
2021/07/03 11:10:26;;;;;;;4.30;2.80;;;717.50;1894.40;;;;;;5066854;28;20097;-70
2021/07/03 11:12:54;;;;;;;3.60;2.70;;;717.40;1920.00;;;;;;5051281;28;20112;-70
2021/07/03 11:15:25;;;;;;;6.00;3.40;;;717.10;1920.00;;;;;;5050221;28;20029;-75
2021/07/03 11:17:51;;;;;;;4.20;2.70;;;716.90;1945.60;;;;;;5050436;28;20037;-68
2021/07/03 11:20:39;;;;;;;3.35;2.70;;;692.10;1920.00;;;;;;5050803;28;20033;-68
2021/07/03 11:23:05;;;;;;;5.95;2.90;;;716.90;1971.20;;;;;;5052223;28;20029;-70
2021/07/03 11:25:43;;;;;;;5.35;3.25;;;716.90;1945.60;;;;;;5062140;28;20082;-70
2021/07/03 11:28:13;;;;;;;4.50;2.70;;;716.90;1945.60;;;;;;5061662;28;20028;-70
2021/07/03 11:30:41;;;;;;;5.32;2.80;;;716.90;1945.60;;;;;;5054277;28;20025;-70
2021/07/03 11:33:08;;;;;;;4.57;2.72;;;717.40;1920.00;;;;;;5055544;28;20021;-68
2021/07/03 11:35:38;;;;;;;4.20;2.80;;;717.50;1920.00;;;;;;5054898;28;20028;-68
2021/07/03 11:38:04;;;;;;;4.88;2.78;;;717.60;1894.40;;;;;;5058426;28;20059;-70
2021/07/03 11:40:31;;;;;;;3.80;2.70;;;742.50;1945.60;;;;;;5055947;28;20509;-71
2021/07/03 11:43:00;;;;;;;4.78;2.55;;;743.00;1894.40;;;;;;5054370;28;20051;-70
2021/07/03 11:45:30;;;;;;;3.87;2.70;;;743.00;1868.80;;;;;;5056683;28;20017;-70
2021/07/03 11:48:16;;;;;;;4.40;2.70;;;768.40;1843.20;;;;;;5061488;28;20021;-70
2021/07/03 11:50:55;;;;;;;5.05;2.72;;;768.60;1817.60;;;;;;5067871;28;20053;-71
2021/07/03 11:53:22;;;;;;;4.80;3.33;;;768.70;1792.00;;;;;;5069301;28;20036;-70
2021/07/03 11:55:51;;;;;;;4.13;2.78;;;768.80;1792.00;;;;;;5070010;28;20035;-70
2021/07/03 11:58:21;;;;;;;5.35;2.90;;;793.70;1817.60;;;;;;5071305;28;20032;-71
2021/07/03 12:00:58;;;;;;;4.55;2.90;;;793.70;1792.00;;;;;;5073223;28;20052;-71
2021/07/03 12:03:26;;;;;;;4.15;2.60;;;793.60;1792.00;;;;;;5068714;28;20206;-70
2021/07/03 12:05:54;;;;;;;3.80;2.70;;;793.60;1843.20;;;;;;5066296;28;20032;-71
2021/07/03 12:08:20;;;;;;;4.35;2.80;;;793.70;1766.40;;;;;;5071727;28;20017;-72
2021/07/03 12:10:51;;;;;;;3.75;2.90;;;768.80;1766.40;;;;;;5073174;28;20025;-75
2021/07/03 12:13:23;;;;;;;3.72;2.92;;;768.40;1792.00;;;;;;5071676;28;20016;-77
2021/07/03 12:16:11;;;;;;;3.60;2.80;;;768.20;1817.60;;;;;;5073155;28;20372;-75
2021/07/03 12:18:51;;;;;;;3.33;2.40;;;768.60;1817.60;;;;;;5060936;28;20112;-71